sensor_id;sensor_type;location;lat;lon;timestamp;temperature;humidity
42683;DHT22;28293;50.930;3.464;2023-02-15T00:01:55;3.00;87.00
42683;DHT22;28293;50.930;3.464;2023-02-15T00:04:22;2.90;87.10
42683;DHT22;28293;50.930;3.464;2023-02-15T00:06:48;2.90;87.30
42683;DHT22;28293;50.930;3.464;2023-02-15T00:09:14;2.90;87.20
42683;DHT22;28293;50.930;3.464;2023-02-15T00:11:39;2.90;87.10
42683;DHT22;28293;50.930;3.464;2023-02-15T00:16:32;2.90;87.10
42683;DHT22;28293;50.930;3.464;2023-02-15T00:18:58;2.90;87.10
42683;DHT22;28293;50.930;3.464;2023-02-15T00:21:27;2.80;87.20
42683;DHT22;28293;50.930;3.464;2023-02-15T00:23:54;2.80;87.20
42683;DHT22;28293;50.930;3.464;2023-02-15T00:26:19;2.80;87.30
42683;DHT22;28293;50.930;3.464;2023-02-15T00:28:45;2.80;87.30
42683;DHT22;28293;50.930;3.464;2023-02-15T00:31:11;2.80;87.50
42683;DHT22;28293;50.930;3.464;2023-02-15T00:33:38;2.80;87.50
42683;DHT22;28293;50.930;3.464;2023-02-15T00:36:06;2.80;87.70
42683;DHT22;28293;50.930;3.464;2023-02-15T00:38:32;2.80;87.70
42683;DHT22;28293;50.930;3.464;2023-02-15T00:41:00;2.80;87.70
42683;DHT22;28293;50.930;3.464;2023-02-15T00:43:28;2.70;87.80
42683;DHT22;28293;50.930;3.464;2023-02-15T00:45:54;2.70;87.90
42683;DHT22;28293;50.930;3.464;2023-02-15T00:48:20;2.60;87.90
42683;DHT22;28293;50.930;3.464;2023-02-15T00:50:48;2.60;87.70
42683;DHT22;28293;50.930;3.464;2023-02-15T00:53:14;2.50;87.70
42683;DHT22;28293;50.930;3.464;2023-02-15T00:55:40;2.50;87.80
42683;DHT22;28293;50.930;3.464;2023-02-15T00:58:07;2.40;87.80
42683;DHT22;28293;50.930;3.464;2023-02-15T01:00:33;2.50;87.90
42683;DHT22;28293;50.930;3.464;2023-02-15T01:02:59;2.40;87.90
42683;DHT22;28293;50.930;3.464;2023-02-15T01:05:24;2.40;88.10
42683;DHT22;28293;50.930;3.464;2023-02-15T01:07:50;2.50;88.20
42683;DHT22;28293;50.930;3.464;2023-02-15T01:10:16;2.50;88.20
42683;DHT22;28293;50.930;3.464;2023-02-15T01:12:42;2.40;87.90
42683;DHT22;28293;50.930;3.464;2023-02-15T01:15:08;2.40;87.80
42683;DHT22;28293;50.930;3.464;2023-02-15T01:17:34;2.40;87.60
42683;DHT22;28293;50.930;3.464;2023-02-15T01:19:59;2.30;87.50
42683;DHT22;28293;50.930;3.464;2023-02-15T01:22:25;2.30;87.40
42683;DHT22;28293;50.930;3.464;2023-02-15T01:24:51;2.20;87.50
42683;DHT22;28293;50.930;3.464;2023-02-15T01:27:17;2.20;87.60
42683;DHT22;28293;50.930;3.464;2023-02-15T01:29:43;2.10;87.70
42683;DHT22;28293;50.930;3.464;2023-02-15T01:32:09;2.20;87.60
42683;DHT22;28293;50.930;3.464;2023-02-15T01:34:34;2.20;87.50
42683;DHT22;28293;50.930;3.464;2023-02-15T01:37:00;2.10;87.30
42683;DHT22;28293;50.930;3.464;2023-02-15T01:39:26;2.00;87.40
42683;DHT22;28293;50.930;3.464;2023-02-15T01:41:51;2.00;87.50
42683;DHT22;28293;50.930;3.464;2023-02-15T01:44:45;2.00;87.50
42683;DHT22;28293;50.930;3.464;2023-02-15T01:47:17;2.00;87.60
42683;DHT22;28293;50.930;3.464;2023-02-15T01:49:45;2.10;87.80
42683;DHT22;28293;50.930;3.464;2023-02-15T01:52:15;2.00;87.70
42683;DHT22;28293;50.930;3.464;2023-02-15T01:54:44;2.10;87.40
42683;DHT22;28293;50.930;3.464;2023-02-15T01:57:16;1.90;87.00
42683;DHT22;28293;50.930;3.464;2023-02-15T01:59:46;1.90;86.90
42683;DHT22;28293;50.930;3.464;2023-02-15T02:02:13;1.90;87.00
42683;DHT22;28293;50.930;3.464;2023-02-15T02:04:48;1.80;86.90
42683;DHT22;28293;50.930;3.464;2023-02-15T02:07:16;1.80;86.90
42683;DHT22;28293;50.930;3.464;2023-02-15T02:09:43;1.70;87.10
42683;DHT22;28293;50.930;3.464;2023-02-15T02:12:09;1.70;87.20
42683;DHT22;28293;50.930;3.464;2023-02-15T02:14:36;1.70;87.20
42683;DHT22;28293;50.930;3.464;2023-02-15T02:17:22;1.70;87.30
42683;DHT22;28293;50.930;3.464;2023-02-15T02:34:51;1.60;87.00
42683;DHT22;28293;50.930;3.464;2023-02-15T02:37:45;1.40;86.90
42683;DHT22;28293;50.930;3.464;2023-02-15T02:40:22;1.40;87.00
42683;DHT22;28293;50.930;3.464;2023-02-15T02:43:21;1.40;87.10
42683;DHT22;28293;50.930;3.464;2023-02-15T02:46:08;1.40;87.20
42683;DHT22;28293;50.930;3.464;2023-02-15T02:48:38;1.50;86.90
42683;DHT22;28293;50.930;3.464;2023-02-15T02:51:04;1.40;86.90
42683;DHT22;28293;50.930;3.464;2023-02-15T02:53:31;1.40;86.90
42683;DHT22;28293;50.930;3.464;2023-02-15T02:56:24;1.40;86.80
42683;DHT22;28293;50.930;3.464;2023-02-15T02:59:05;1.30;86.90
42683;DHT22;28293;50.930;3.464;2023-02-15T03:01:42;1.30;87.00
42683;DHT22;28293;50.930;3.464;2023-02-15T03:04:23;1.30;87.10
42683;DHT22;28293;50.930;3.464;2023-02-15T03:07:03;1.30;87.20
42683;DHT22;28293;50.930;3.464;2023-02-15T03:09:37;1.30;87.40
42683;DHT22;28293;50.930;3.464;2023-02-15T03:12:24;1.40;87.40
42683;DHT22;28293;50.930;3.464;2023-02-15T03:15:28;1.40;87.30
42683;DHT22;28293;50.930;3.464;2023-02-15T03:17:51;1.40;87.30
42683;DHT22;28293;50.930;3.464;2023-02-15T03:20:26;1.40;87.30
42683;DHT22;28293;50.930;3.464;2023-02-15T03:23:03;1.40;87.40
42683;DHT22;28293;50.930;3.464;2023-02-15T03:25:44;1.30;87.40
42683;DHT22;28293;50.930;3.464;2023-02-15T03:28:17;1.30;87.40
42683;DHT22;28293;50.930;3.464;2023-02-15T03:30:47;1.30;87.40
42683;DHT22;28293;50.930;3.464;2023-02-15T03:33:15;1.30;87.40
42683;DHT22;28293;50.930;3.464;2023-02-15T03:38:28;1.20;87.30
42683;DHT22;28293;50.930;3.464;2023-02-15T03:40:58;1.10;87.20
42683;DHT22;28293;50.930;3.464;2023-02-15T03:49:20;1.10;87.40
42683;DHT22;28293;50.930;3.464;2023-02-15T03:51:48;1.10;87.50
42683;DHT22;28293;50.930;3.464;2023-02-15T03:54:20;1.10;87.30
42683;DHT22;28293;50.930;3.464;2023-02-15T03:57:08;1.00;87.40
42683;DHT22;28293;50.930;3.464;2023-02-15T03:59:57;1.00;87.40
42683;DHT22;28293;50.930;3.464;2023-02-15T04:05:35;1.00;87.70
42683;DHT22;28293;50.930;3.464;2023-02-15T04:08:01;1.10;87.70
42683;DHT22;28293;50.930;3.464;2023-02-15T04:10:27;1.10;87.80
42683;DHT22;28293;50.930;3.464;2023-02-15T04:13:11;1.10;87.70
42683;DHT22;28293;50.930;3.464;2023-02-15T04:15:37;1.10;87.80
42683;DHT22;28293;50.930;3.464;2023-02-15T04:18:21;1.00;87.70
42683;DHT22;28293;50.930;3.464;2023-02-15T04:20:47;1.00;87.60
42683;DHT22;28293;50.930;3.464;2023-02-15T04:23:31;1.00;87.70
42683;DHT22;28293;50.930;3.464;2023-02-15T04:26:15;1.00;87.70
42683;DHT22;28293;50.930;3.464;2023-02-15T04:28:41;1.00;87.60
42683;DHT22;28293;50.930;3.464;2023-02-15T04:31:07;0.90;87.60
42683;DHT22;28293;50.930;3.464;2023-02-15T04:33:33;0.90;87.70
42683;DHT22;28293;50.930;3.464;2023-02-15T04:35:59;0.90;87.80
42683;DHT22;28293;50.930;3.464;2023-02-15T04:38:25;0.90;87.90
42683;DHT22;28293;50.930;3.464;2023-02-15T04:40:51;0.90;87.90
42683;DHT22;28293;50.930;3.464;2023-02-15T04:43:18;0.90;88.00
42683;DHT22;28293;50.930;3.464;2023-02-15T04:45:51;0.90;88.10
42683;DHT22;28293;50.930;3.464;2023-02-15T04:48:17;0.90;88.20
42683;DHT22;28293;50.930;3.464;2023-02-15T04:50:44;1.00;88.20
42683;DHT22;28293;50.930;3.464;2023-02-15T04:53:10;0.90;88.20
42683;DHT22;28293;50.930;3.464;2023-02-15T04:55:35;0.90;88.10
42683;DHT22;28293;50.930;3.464;2023-02-15T04:58:01;0.80;88.00
42683;DHT22;28293;50.930;3.464;2023-02-15T05:00:27;0.80;88.20
42683;DHT22;28293;50.930;3.464;2023-02-15T05:02:53;0.90;87.90
42683;DHT22;28293;50.930;3.464;2023-02-15T05:05:18;1.00;87.70
42683;DHT22;28293;50.930;3.464;2023-02-15T05:07:44;1.10;87.60
42683;DHT22;28293;50.930;3.464;2023-02-15T05:10:10;1.10;87.40
42683;DHT22;28293;50.930;3.464;2023-02-15T05:12:36;1.10;87.20
42683;DHT22;28293;50.930;3.464;2023-02-15T05:15:02;1.10;87.20
42683;DHT22;28293;50.930;3.464;2023-02-15T05:17:27;1.10;87.10
42683;DHT22;28293;50.930;3.464;2023-02-15T05:19:53;1.10;87.10
42683;DHT22;28293;50.930;3.464;2023-02-15T05:22:19;1.10;87.20
42683;DHT22;28293;50.930;3.464;2023-02-15T05:24:44;1.10;87.10
42683;DHT22;28293;50.930;3.464;2023-02-15T05:27:28;1.10;87.00
42683;DHT22;28293;50.930;3.464;2023-02-15T05:30:13;1.10;87.10
42683;DHT22;28293;50.930;3.464;2023-02-15T05:32:39;1.00;87.10
42683;DHT22;28293;50.930;3.464;2023-02-15T05:35:06;1.00;87.10
42683;DHT22;28293;50.930;3.464;2023-02-15T05:37:31;0.90;87.10
42683;DHT22;28293;50.930;3.464;2023-02-15T05:39:57;0.80;87.30
42683;DHT22;28293;50.930;3.464;2023-02-15T05:42:23;0.70;87.50
42683;DHT22;28293;50.930;3.464;2023-02-15T05:44:48;0.70;87.70
42683;DHT22;28293;50.930;3.464;2023-02-15T05:47:14;0.70;87.80
42683;DHT22;28293;50.930;3.464;2023-02-15T05:49:40;0.70;87.90
42683;DHT22;28293;50.930;3.464;2023-02-15T05:52:05;0.60;87.90
42683;DHT22;28293;50.930;3.464;2023-02-15T05:54:31;0.60;87.90
42683;DHT22;28293;50.930;3.464;2023-02-15T05:56:57;0.70;88.00
42683;DHT22;28293;50.930;3.464;2023-02-15T05:59:22;0.70;88.10
42683;DHT22;28293;50.930;3.464;2023-02-15T06:01:48;0.70;88.10
42683;DHT22;28293;50.930;3.464;2023-02-15T06:04:14;0.70;88.20
42683;DHT22;28293;50.930;3.464;2023-02-15T06:06:39;0.60;88.10
42683;DHT22;28293;50.930;3.464;2023-02-15T06:09:05;0.70;88.20
42683;DHT22;28293;50.930;3.464;2023-02-15T06:11:31;0.60;88.10
42683;DHT22;28293;50.930;3.464;2023-02-15T06:13:56;0.60;88.00
42683;DHT22;28293;50.930;3.464;2023-02-15T06:16:22;0.60;87.90
42683;DHT22;28293;50.930;3.464;2023-02-15T06:18:48;0.60;87.80
42683;DHT22;28293;50.930;3.464;2023-02-15T06:21:13;0.60;87.70
42683;DHT22;28293;50.930;3.464;2023-02-15T06:23:39;0.60;87.70
42683;DHT22;28293;50.930;3.464;2023-02-15T06:26:05;0.60;87.70
42683;DHT22;28293;50.930;3.464;2023-02-15T06:28:30;0.60;87.80
42683;DHT22;28293;50.930;3.464;2023-02-15T06:30:56;0.60;87.90
42683;DHT22;28293;50.930;3.464;2023-02-15T06:33:22;0.60;88.00
42683;DHT22;28293;50.930;3.464;2023-02-15T06:35:48;0.60;88.10
42683;DHT22;28293;50.930;3.464;2023-02-15T06:38:13;0.60;88.10
42683;DHT22;28293;50.930;3.464;2023-02-15T06:40:39;0.60;88.10
42683;DHT22;28293;50.930;3.464;2023-02-15T06:43:04;0.60;88.20
42683;DHT22;28293;50.930;3.464;2023-02-15T06:45:30;0.60;88.30
42683;DHT22;28293;50.930;3.464;2023-02-15T06:47:56;0.70;88.30
42683;DHT22;28293;50.930;3.464;2023-02-15T06:50:21;0.70;88.20
42683;DHT22;28293;50.930;3.464;2023-02-15T06:52:47;0.70;88.30
42683;DHT22;28293;50.930;3.464;2023-02-15T06:55:13;0.70;88.30
42683;DHT22;28293;50.930;3.464;2023-02-15T06:57:38;0.70;88.10
42683;DHT22;28293;50.930;3.464;2023-02-15T07:00:05;0.70;88.20
42683;DHT22;28293;50.930;3.464;2023-02-15T07:02:31;0.70;88.10
42683;DHT22;28293;50.930;3.464;2023-02-15T07:04:57;0.70;88.10
42683;DHT22;28293;50.930;3.464;2023-02-15T07:07:22;0.70;88.10
42683;DHT22;28293;50.930;3.464;2023-02-15T07:09:48;0.70;88.10
42683;DHT22;28293;50.930;3.464;2023-02-15T07:12:14;0.70;88.10
42683;DHT22;28293;50.930;3.464;2023-02-15T07:14:58;0.80;88.10
42683;DHT22;28293;50.930;3.464;2023-02-15T07:17:24;0.80;88.10
42683;DHT22;28293;50.930;3.464;2023-02-15T07:19:54;0.90;88.00
42683;DHT22;28293;50.930;3.464;2023-02-15T07:22:19;0.90;88.00
42683;DHT22;28293;50.930;3.464;2023-02-15T07:24:45;0.90;87.90
42683;DHT22;28293;50.930;3.464;2023-02-15T07:27:10;1.00;87.90
42683;DHT22;28293;50.930;3.464;2023-02-15T07:29:36;1.10;88.00
42683;DHT22;28293;50.930;3.464;2023-02-15T07:32:02;1.10;88.20
42683;DHT22;28293;50.930;3.464;2023-02-15T07:34:27;1.30;88.30
42683;DHT22;28293;50.930;3.464;2023-02-15T07:36:53;1.50;88.50
42683;DHT22;28293;50.930;3.464;2023-02-15T07:39:19;1.60;88.70
42683;DHT22;28293;50.930;3.464;2023-02-15T07:41:45;1.80;88.70
42683;DHT22;28293;50.930;3.464;2023-02-15T07:44:14;1.90;88.90
42683;DHT22;28293;50.930;3.464;2023-02-15T07:46:40;2.00;89.00
42683;DHT22;28293;50.930;3.464;2023-02-15T07:49:06;2.20;89.10
42683;DHT22;28293;50.930;3.464;2023-02-15T07:51:32;2.30;89.10
42683;DHT22;28293;50.930;3.464;2023-02-15T07:53:57;2.40;89.10
42683;DHT22;28293;50.930;3.464;2023-02-15T07:56:23;2.50;89.10
42683;DHT22;28293;50.930;3.464;2023-02-15T07:58:49;2.60;89.10
42683;DHT22;28293;50.930;3.464;2023-02-15T08:01:27;2.70;89.20
42683;DHT22;28293;50.930;3.464;2023-02-15T08:03:54;2.80;89.30
42683;DHT22;28293;50.930;3.464;2023-02-15T08:06:22;3.00;89.30
42683;DHT22;28293;50.930;3.464;2023-02-15T08:08:48;3.10;89.20
42683;DHT22;28293;50.930;3.464;2023-02-15T08:11:17;3.20;89.00
42683;DHT22;28293;50.930;3.464;2023-02-15T08:13:59;3.30;89.00
42683;DHT22;28293;50.930;3.464;2023-02-15T08:18:53;3.60;88.90
42683;DHT22;28293;50.930;3.464;2023-02-15T08:21:20;3.70;88.90
42683;DHT22;28293;50.930;3.464;2023-02-15T08:23:46;3.80;88.80
42683;DHT22;28293;50.930;3.464;2023-02-15T08:26:12;3.90;88.70
42683;DHT22;28293;50.930;3.464;2023-02-15T08:28:39;4.00;88.50
42683;DHT22;28293;50.930;3.464;2023-02-15T08:31:06;4.10;88.50
42683;DHT22;28293;50.930;3.464;2023-02-15T08:33:32;4.20;88.40
42683;DHT22;28293;50.930;3.464;2023-02-15T08:36:06;4.30;88.20
42683;DHT22;28293;50.930;3.464;2023-02-15T08:38:32;4.40;88.10
42683;DHT22;28293;50.930;3.464;2023-02-15T08:41:08;4.50;88.00
42683;DHT22;28293;50.930;3.464;2023-02-15T08:43:34;4.70;87.60
42683;DHT22;28293;50.930;3.464;2023-02-15T08:45:59;4.70;87.40
42683;DHT22;28293;50.930;3.464;2023-02-15T08:48:25;4.90;87.30
42683;DHT22;28293;50.930;3.464;2023-02-15T08:50:51;5.00;86.90
42683;DHT22;28293;50.930;3.464;2023-02-15T08:53:16;5.20;86.60
42683;DHT22;28293;50.930;3.464;2023-02-15T08:55:47;5.20;86.10
42683;DHT22;28293;50.930;3.464;2023-02-15T08:58:13;5.40;85.80
42683;DHT22;28293;50.930;3.464;2023-02-15T09:00:38;5.50;85.70
42683;DHT22;28293;50.930;3.464;2023-02-15T09:03:04;5.70;84.90
42683;DHT22;28293;50.930;3.464;2023-02-15T09:05:30;5.80;84.30
42683;DHT22;28293;50.930;3.464;2023-02-15T09:07:55;5.90;83.80
42683;DHT22;28293;50.930;3.464;2023-02-15T09:10:21;6.10;83.40
42683;DHT22;28293;50.930;3.464;2023-02-15T09:12:47;6.20;82.70
42683;DHT22;28293;50.930;3.464;2023-02-15T09:15:15;6.40;82.40
42683;DHT22;28293;50.930;3.464;2023-02-15T09:17:41;6.50;82.00
42683;DHT22;28293;50.930;3.464;2023-02-15T09:20:07;6.60;81.30
42683;DHT22;28293;50.930;3.464;2023-02-15T09:22:33;6.70;80.60
42683;DHT22;28293;50.930;3.464;2023-02-15T09:24:58;6.80;79.90
42683;DHT22;28293;50.930;3.464;2023-02-15T09:27:24;6.90;79.80
42683;DHT22;28293;50.930;3.464;2023-02-15T09:29:50;7.00;79.40
42683;DHT22;28293;50.930;3.464;2023-02-15T09:32:15;7.00;78.70
42683;DHT22;28293;50.930;3.464;2023-02-15T09:34:43;7.00;79.10
42683;DHT22;28293;50.930;3.464;2023-02-15T09:37:08;7.10;78.80
42683;DHT22;28293;50.930;3.464;2023-02-15T09:39:34;7.10;77.90
42683;DHT22;28293;50.930;3.464;2023-02-15T09:42:09;7.10;77.90
42683;DHT22;28293;50.930;3.464;2023-02-15T09:48:09;7.40;77.60
42683;DHT22;28293;50.930;3.464;2023-02-15T09:56:14;7.70;76.50
42683;DHT22;28293;50.930;3.464;2023-02-15T10:10:02;8.10;75.10
42683;DHT22;28293;50.930;3.464;2023-02-15T10:12:47;8.10;74.90
42683;DHT22;28293;50.930;3.464;2023-02-15T10:20:24;8.30;75.10
42683;DHT22;28293;50.930;3.464;2023-02-15T10:23:16;8.60;75.00
42683;DHT22;28293;50.930;3.464;2023-02-15T10:26:22;8.90;74.10
42683;DHT22;28293;50.930;3.464;2023-02-15T10:28:52;9.10;73.30
42683;DHT22;28293;50.930;3.464;2023-02-15T10:31:29;9.10;72.50
42683;DHT22;28293;50.930;3.464;2023-02-15T10:34:17;9.20;72.50
42683;DHT22;28293;50.930;3.464;2023-02-15T10:47:55;9.60;71.50
42683;DHT22;28293;50.930;3.464;2023-02-15T10:56:19;9.50;72.10
42683;DHT22;28293;50.930;3.464;2023-02-15T11:01:58;9.70;71.90
42683;DHT22;28293;50.930;3.464;2023-02-15T11:07:29;10.00;71.30
42683;DHT22;28293;50.930;3.464;2023-02-15T11:12:31;10.10;71.10
42683;DHT22;28293;50.930;3.464;2023-02-15T11:15:03;10.20;70.80
42683;DHT22;28293;50.930;3.464;2023-02-15T11:17:49;10.40;70.20
42683;DHT22;28293;50.930;3.464;2023-02-15T11:23:14;10.70;69.00
42683;DHT22;28293;50.930;3.464;2023-02-15T11:25:44;10.70;68.70
42683;DHT22;28293;50.930;3.464;2023-02-15T11:28:22;10.80;68.40
42683;DHT22;28293;50.930;3.464;2023-02-15T11:30:53;11.00;68.60
42683;DHT22;28293;50.930;3.464;2023-02-15T11:33:37;10.90;68.10
42683;DHT22;28293;50.930;3.464;2023-02-15T11:36:12;11.00;68.50
42683;DHT22;28293;50.930;3.464;2023-02-15T11:38:38;11.00;68.30
42683;DHT22;28293;50.930;3.464;2023-02-15T11:41:10;11.10;68.30
42683;DHT22;28293;50.930;3.464;2023-02-15T11:43:41;11.20;68.20
42683;DHT22;28293;50.930;3.464;2023-02-15T11:46:11;11.30;68.10
42683;DHT22;28293;50.930;3.464;2023-02-15T11:48:37;11.30;67.50
42683;DHT22;28293;50.930;3.464;2023-02-15T11:51:03;11.40;67.30
42683;DHT22;28293;50.930;3.464;2023-02-15T11:53:32;11.50;67.60
42683;DHT22;28293;50.930;3.464;2023-02-15T11:55:59;11.70;67.10
42683;DHT22;28293;50.930;3.464;2023-02-15T11:58:37;11.80;66.80
42683;DHT22;28293;50.930;3.464;2023-02-15T12:01:35;12.00;66.30
42683;DHT22;28293;50.930;3.464;2023-02-15T12:04:09;12.10;66.30
42683;DHT22;28293;50.930;3.464;2023-02-15T12:06:44;12.10;66.10
42683;DHT22;28293;50.930;3.464;2023-02-15T12:12:28;12.10;65.90
42683;DHT22;28293;50.930;3.464;2023-02-15T12:14:56;12.10;66.10
42683;DHT22;28293;50.930;3.464;2023-02-15T12:17:24;12.20;65.40
42683;DHT22;28293;50.930;3.464;2023-02-15T12:19:55;12.30;65.10
42683;DHT22;28293;50.930;3.464;2023-02-15T12:22:31;12.30;65.10
42683;DHT22;28293;50.930;3.464;2023-02-15T12:25:04;12.40;64.80
42683;DHT22;28293;50.930;3.464;2023-02-15T12:27:33;12.40;65.00
42683;DHT22;28293;50.930;3.464;2023-02-15T12:30:06;12.40;64.70
42683;DHT22;28293;50.930;3.464;2023-02-15T12:33:34;12.40;64.70
42683;DHT22;28293;50.930;3.464;2023-02-15T12:35:35;12.30;65.30
42683;DHT22;28293;50.930;3.464;2023-02-15T12:38:05;12.30;65.60
42683;DHT22;28293;50.930;3.464;2023-02-15T12:40:32;12.30;65.70
42683;DHT22;28293;50.930;3.464;2023-02-15T12:42:59;12.30;65.60
42683;DHT22;28293;50.930;3.464;2023-02-15T12:45:32;12.20;66.20
42683;DHT22;28293;50.930;3.464;2023-02-15T12:50:34;12.60;65.80
42683;DHT22;28293;50.930;3.464;2023-02-15T12:53:18;12.70;65.70
42683;DHT22;28293;50.930;3.464;2023-02-15T12:56:03;12.70;66.00
42683;DHT22;28293;50.930;3.464;2023-02-15T12:58:31;12.60;64.80
42683;DHT22;28293;50.930;3.464;2023-02-15T13:01:16;12.70;63.70
42683;DHT22;28293;50.930;3.464;2023-02-15T13:04:01;12.70;64.00
42683;DHT22;28293;50.930;3.464;2023-02-15T13:06:29;12.70;64.00
42683;DHT22;28293;50.930;3.464;2023-02-15T13:09:05;12.90;64.10
42683;DHT22;28293;50.930;3.464;2023-02-15T13:11:32;12.80;63.80
42683;DHT22;28293;50.930;3.464;2023-02-15T13:14:16;12.90;64.00
42683;DHT22;28293;50.930;3.464;2023-02-15T13:16:44;12.70;64.40
42683;DHT22;28293;50.930;3.464;2023-02-15T13:19:15;12.70;64.80
42683;DHT22;28293;50.930;3.464;2023-02-15T13:21:45;12.70;65.00
42683;DHT22;28293;50.930;3.464;2023-02-15T13:24:24;12.60;65.30
42683;DHT22;28293;50.930;3.464;2023-02-15T13:26:54;12.70;64.80
42683;DHT22;28293;50.930;3.464;2023-02-15T13:29:27;12.60;64.70
42683;DHT22;28293;50.930;3.464;2023-02-15T13:31:54;12.60;65.30
42683;DHT22;28293;50.930;3.464;2023-02-15T13:34:31;12.60;65.40
42683;DHT22;28293;50.930;3.464;2023-02-15T13:37:06;12.60;65.80
42683;DHT22;28293;50.930;3.464;2023-02-15T13:39:54;12.60;66.10
42683;DHT22;28293;50.930;3.464;2023-02-15T13:42:36;12.50;65.90
42683;DHT22;28293;50.930;3.464;2023-02-15T13:48:23;12.60;66.70
42683;DHT22;28293;50.930;3.464;2023-02-15T13:51:02;12.70;66.80
42683;DHT22;28293;50.930;3.464;2023-02-15T13:59:37;12.60;66.80
42683;DHT22;28293;50.930;3.464;2023-02-15T14:07:56;12.60;67.60
42683;DHT22;28293;50.930;3.464;2023-02-15T14:19:22;12.60;66.50
42683;DHT22;28293;50.930;3.464;2023-02-15T14:30:20;12.40;67.20
42683;DHT22;28293;50.930;3.464;2023-02-15T14:32:51;12.40;66.90
42683;DHT22;28293;50.930;3.464;2023-02-15T14:35:23;12.40;67.30
42683;DHT22;28293;50.930;3.464;2023-02-15T14:48:52;12.30;66.90
42683;DHT22;28293;50.930;3.464;2023-02-15T14:56:45;12.30;67.70
42683;DHT22;28293;50.930;3.464;2023-02-15T15:01:38;12.10;68.60
42683;DHT22;28293;50.930;3.464;2023-02-15T15:04:31;12.00;68.50
42683;DHT22;28293;50.930;3.464;2023-02-15T15:07:13;11.90;68.90
42683;DHT22;28293;50.930;3.464;2023-02-15T15:09:43;11.90;69.20
42683;DHT22;28293;50.930;3.464;2023-02-15T15:14:53;11.80;69.60
42683;DHT22;28293;50.930;3.464;2023-02-15T15:22:26;11.70;69.70
42683;DHT22;28293;50.930;3.464;2023-02-15T15:25:00;11.70;70.10
42683;DHT22;28293;50.930;3.464;2023-02-15T15:27:49;11.70;70.40
42683;DHT22;28293;50.930;3.464;2023-02-15T15:35:49;11.60;71.20
42683;DHT22;28293;50.930;3.464;2023-02-15T15:49:32;11.50;71.40
42683;DHT22;28293;50.930;3.464;2023-02-15T15:52:01;11.50;71.60
42683;DHT22;28293;50.930;3.464;2023-02-15T15:54:28;11.40;71.70
42683;DHT22;28293;50.930;3.464;2023-02-15T15:57:03;11.40;71.80
42683;DHT22;28293;50.930;3.464;2023-02-15T15:59:33;11.30;72.00
42683;DHT22;28293;50.930;3.464;2023-02-15T16:02:13;11.30;72.20
42683;DHT22;28293;50.930;3.464;2023-02-15T16:04:40;11.20;72.30
42683;DHT22;28293;50.930;3.464;2023-02-15T16:07:33;11.20;72.40
42683;DHT22;28293;50.930;3.464;2023-02-15T16:10:00;11.30;72.10
42683;DHT22;28293;50.930;3.464;2023-02-15T16:12:34;11.30;72.20
42683;DHT22;28293;50.930;3.464;2023-02-15T16:15:24;11.30;72.20
42683;DHT22;28293;50.930;3.464;2023-02-15T16:17:56;11.20;72.40
42683;DHT22;28293;50.930;3.464;2023-02-15T16:20:33;11.30;72.30
42683;DHT22;28293;50.930;3.464;2023-02-15T16:28:39;11.20;72.20
42683;DHT22;28293;50.930;3.464;2023-02-15T16:31:14;11.20;72.20
42683;DHT22;28293;50.930;3.464;2023-02-15T16:33:41;11.10;72.40
42683;DHT22;28293;50.930;3.464;2023-02-15T16:36:12;11.10;72.30
42683;DHT22;28293;50.930;3.464;2023-02-15T16:38:55;11.10;72.30
42683;DHT22;28293;50.930;3.464;2023-02-15T16:41:30;11.00;72.20
42683;DHT22;28293;50.930;3.464;2023-02-15T16:44:10;11.00;72.40
42683;DHT22;28293;50.930;3.464;2023-02-15T16:46:41;10.90;72.50
42683;DHT22;28293;50.930;3.464;2023-02-15T16:49:25;10.90;72.70
42683;DHT22;28293;50.930;3.464;2023-02-15T16:52:00;10.80;72.90
42683;DHT22;28293;50.930;3.464;2023-02-15T16:54:28;10.70;73.00
42683;DHT22;28293;50.930;3.464;2023-02-15T16:56:55;10.70;73.10
42683;DHT22;28293;50.930;3.464;2023-02-15T16:59:39;10.60;73.60
42683;DHT22;28293;50.930;3.464;2023-02-15T17:02:38;10.50;73.80
42683;DHT22;28293;50.930;3.464;2023-02-15T17:05:14;10.40;74.10
42683;DHT22;28293;50.930;3.464;2023-02-15T17:07:48;10.30;74.50
42683;DHT22;28293;50.930;3.464;2023-02-15T17:10:33;10.20;74.80
42683;DHT22;28293;50.930;3.464;2023-02-15T17:13:12;10.20;75.00
42683;DHT22;28293;50.930;3.464;2023-02-15T17:15:44;10.10;75.30
42683;DHT22;28293;50.930;3.464;2023-02-15T17:18:39;10.10;75.50
42683;DHT22;28293;50.930;3.464;2023-02-15T17:21:17;10.00;75.70
42683;DHT22;28293;50.930;3.464;2023-02-15T17:23:48;9.90;75.90
42683;DHT22;28293;50.930;3.464;2023-02-15T17:28:49;9.90;76.40
42683;DHT22;28293;50.930;3.464;2023-02-15T17:31:17;9.80;76.30
42683;DHT22;28293;50.930;3.464;2023-02-15T17:33:43;9.80;76.70
42683;DHT22;28293;50.930;3.464;2023-02-15T17:36:16;9.80;76.70
42683;DHT22;28293;50.930;3.464;2023-02-15T17:41:29;9.70;77.10
42683;DHT22;28293;50.930;3.464;2023-02-15T17:43:56;9.60;77.30
42683;DHT22;28293;50.930;3.464;2023-02-15T17:46:22;9.60;77.50
42683;DHT22;28293;50.930;3.464;2023-02-15T17:48:50;9.60;77.60
42683;DHT22;28293;50.930;3.464;2023-02-15T17:51:18;9.60;78.10
42683;DHT22;28293;50.930;3.464;2023-02-15T17:53:44;9.40;78.10
42683;DHT22;28293;50.930;3.464;2023-02-15T17:56:34;9.40;78.20
42683;DHT22;28293;50.930;3.464;2023-02-15T17:59:00;9.40;78.40
42683;DHT22;28293;50.930;3.464;2023-02-15T18:01:26;9.30;78.60
42683;DHT22;28293;50.930;3.464;2023-02-15T18:04:12;9.30;78.90
42683;DHT22;28293;50.930;3.464;2023-02-15T18:06:56;9.20;78.90
42683;DHT22;28293;50.930;3.464;2023-02-15T18:09:41;9.20;79.30
42683;DHT22;28293;50.930;3.464;2023-02-15T18:14:52;9.10;79.50
42683;DHT22;28293;50.930;3.464;2023-02-15T18:17:34;9.10;79.50
42683;DHT22;28293;50.930;3.464;2023-02-15T18:20:02;9.10;79.60
42683;DHT22;28293;50.930;3.464;2023-02-15T18:22:30;9.00;79.70
42683;DHT22;28293;50.930;3.464;2023-02-15T18:24:56;9.00;80.00
42683;DHT22;28293;50.930;3.464;2023-02-15T18:27:22;8.90;80.20
42683;DHT22;28293;50.930;3.464;2023-02-15T18:29:48;8.90;80.30
42683;DHT22;28293;50.930;3.464;2023-02-15T18:32:30;8.90;80.80
42683;DHT22;28293;50.930;3.464;2023-02-15T18:34:57;8.80;80.80
42683;DHT22;28293;50.930;3.464;2023-02-15T18:37:26;8.70;81.00
42683;DHT22;28293;50.930;3.464;2023-02-15T18:39:53;8.70;81.30
42683;DHT22;28293;50.930;3.464;2023-02-15T18:42:20;8.70;81.70
42683;DHT22;28293;50.930;3.464;2023-02-15T18:44:46;8.70;81.80
42683;DHT22;28293;50.930;3.464;2023-02-15T18:47:12;8.70;81.80
42683;DHT22;28293;50.930;3.464;2023-02-15T18:49:38;8.70;82.10
42683;DHT22;28293;50.930;3.464;2023-02-15T18:52:04;8.60;82.10
42683;DHT22;28293;50.930;3.464;2023-02-15T18:54:29;8.60;82.30
42683;DHT22;28293;50.930;3.464;2023-02-15T18:56:57;8.60;82.40
42683;DHT22;28293;50.930;3.464;2023-02-15T18:59:24;8.60;82.70
42683;DHT22;28293;50.930;3.464;2023-02-15T19:01:51;8.60;82.90
42683;DHT22;28293;50.930;3.464;2023-02-15T19:04:17;8.50;82.90
42683;DHT22;28293;50.930;3.464;2023-02-15T19:06:47;8.50;83.20